createdAt,value
2022-11-13T00:01:14.964Z,13.10
2022-11-13T00:03:41.957Z,13.10
2022-11-13T00:06:11.006Z,13.10
2022-11-13T00:08:37.868Z,13.10
2022-11-13T00:11:11.436Z,13.10
2022-11-13T00:13:39.051Z,13.10
2022-11-13T00:16:10.121Z,13.10
2022-11-13T00:18:37.643Z,13.10
2022-11-13T00:21:16.584Z,13.10
2022-11-13T00:23:43.751Z,13.10
2022-11-13T00:26:16.377Z,13.10
2022-11-13T00:28:44.372Z,13.10
2022-11-13T00:31:15.780Z,13.10
2022-11-13T00:36:29.688Z,13.10
2022-11-13T00:38:56.929Z,13.10
2022-11-13T00:41:24.699Z,13.10
2022-11-13T00:43:51.956Z,13.10
2022-11-13T00:46:19.447Z,13.10
2022-11-13T00:48:46.313Z,13.10
2022-11-13T00:51:13.185Z,13.00
2022-11-13T00:53:40.153Z,13.00
2022-11-13T00:56:07.085Z,13.00
2022-11-13T00:58:33.916Z,13.00
2022-11-13T01:01:07.167Z,13.10
2022-11-13T01:03:34.465Z,13.10
2022-11-13T01:06:01.361Z,13.00
2022-11-13T01:08:28.490Z,13.00
2022-11-13T01:10:55.661Z,13.00
2022-11-13T01:13:22.525Z,13.00
2022-11-13T01:15:49.592Z,13.00
2022-11-13T01:18:16.505Z,13.00
2022-11-13T01:20:43.284Z,13.00
2022-11-13T01:23:10.245Z,13.00
2022-11-13T01:25:37.084Z,13.00
2022-11-13T01:28:04.202Z,13.00
2022-11-13T01:30:30.961Z,13.00
2022-11-13T01:32:57.792Z,13.00
2022-11-13T01:35:24.615Z,13.00
2022-11-13T01:37:51.424Z,13.00
2022-11-13T01:40:18.546Z,13.00
2022-11-13T01:42:45.430Z,12.90
2022-11-13T01:46:05.062Z,13.00
2022-11-13T01:48:53.030Z,12.90
2022-11-13T01:51:38.509Z,13.00
2022-11-13T01:54:09.150Z,13.00
2022-11-13T01:56:36.902Z,13.00
2022-11-13T01:59:19.924Z,13.00
2022-11-13T02:01:46.834Z,13.00
2022-11-13T02:04:13.991Z,13.00
2022-11-13T02:06:54.499Z,13.00
2022-11-13T02:09:24.915Z,13.00
2022-11-13T02:11:52.891Z,12.90
2022-11-13T02:14:21.483Z,12.90
2022-11-13T02:16:51.187Z,12.90
2022-11-13T02:19:26.127Z,12.90
2022-11-13T02:21:56.074Z,12.90
2022-11-13T02:24:37.882Z,13.00
2022-11-13T02:27:14.763Z,12.90
2022-11-13T02:29:41.534Z,12.90
2022-11-13T02:32:08.344Z,12.90
2022-11-13T02:34:35.276Z,12.90
2022-11-13T02:37:02.088Z,12.90
2022-11-13T02:39:28.983Z,12.90
2022-11-13T02:41:55.762Z,12.90
2022-11-13T02:44:22.591Z,12.90
2022-11-13T02:46:49.352Z,12.90
2022-11-13T02:49:16.142Z,12.90
2022-11-13T02:51:42.935Z,12.90
2022-11-13T02:54:14.143Z,12.90
2022-11-13T02:56:43.606Z,12.90
2022-11-13T02:59:10.367Z,12.90
2022-11-13T03:01:37.199Z,13.00
2022-11-13T03:04:04.223Z,12.90
2022-11-13T03:06:31.031Z,13.00
2022-11-13T03:08:58.019Z,13.00
2022-11-13T03:11:24.859Z,12.90
2022-11-13T03:13:51.722Z,12.90
2022-11-13T03:16:18.747Z,12.90
2022-11-13T03:18:45.592Z,12.90
2022-11-13T03:21:15.375Z,12.90
2022-11-13T03:23:45.104Z,12.90
2022-11-13T03:26:13.923Z,12.90
2022-11-13T03:28:41.092Z,12.90
2022-11-13T03:31:08.300Z,12.90
2022-11-13T03:33:35.248Z,12.90
2022-11-13T03:36:02.144Z,12.90
2022-11-13T03:38:29.272Z,12.90
2022-11-13T03:40:56.387Z,12.90
2022-11-13T03:43:23.704Z,12.90
2022-11-13T03:45:51.019Z,12.90
2022-11-13T03:48:18.315Z,12.90
2022-11-13T03:50:52.346Z,12.90
2022-11-13T03:53:19.187Z,12.90
2022-11-13T03:55:47.309Z,12.90
2022-11-13T03:58:14.390Z,12.90
2022-11-13T04:00:42.444Z,12.90
2022-11-13T04:03:09.356Z,12.80
2022-11-13T04:05:36.575Z,12.90
2022-11-13T04:08:03.748Z,12.90
2022-11-13T04:10:30.959Z,12.90
2022-11-13T04:12:57.796Z,12.90
2022-11-13T04:15:24.706Z,12.90
2022-11-13T04:17:51.515Z,12.90
2022-11-13T04:20:18.836Z,12.90
2022-11-13T04:22:45.654Z,12.90
2022-11-13T04:25:12.454Z,12.90
2022-11-13T04:27:39.344Z,12.80
2022-11-13T04:30:06.837Z,12.80
2022-11-13T04:32:33.724Z,12.80
2022-11-13T04:35:00.705Z,12.80
2022-11-13T04:37:27.545Z,12.80
2022-11-13T04:39:54.332Z,12.80
2022-11-13T04:42:39.469Z,12.80
2022-11-13T04:45:06.716Z,12.80
2022-11-13T04:47:33.525Z,12.80
2022-11-13T04:50:00.349Z,12.80
2022-11-13T04:52:28.631Z,12.80
2022-11-13T04:54:55.700Z,12.80
2022-11-13T04:57:22.761Z,12.80
2022-11-13T04:59:49.651Z,12.80
2022-11-13T05:02:16.573Z,12.90
2022-11-13T05:04:43.348Z,12.90
2022-11-13T05:07:10.167Z,12.90
2022-11-13T05:09:37.053Z,12.90
2022-11-13T05:12:07.943Z,12.90
2022-11-13T05:14:39.508Z,12.80
2022-11-13T05:17:07.467Z,12.80
2022-11-13T05:19:35.081Z,12.80
2022-11-13T05:22:02.132Z,12.80
2022-11-13T05:24:29.190Z,12.80
2022-11-13T05:26:56.279Z,12.80
2022-11-13T05:29:23.328Z,12.90
2022-11-13T05:31:50.341Z,12.80
2022-11-13T05:34:17.276Z,12.80
2022-11-13T05:36:44.037Z,12.80
2022-11-13T05:39:11.438Z,12.80
2022-11-13T05:41:38.269Z,12.80
2022-11-13T05:44:05.133Z,12.90
2022-11-13T05:46:31.974Z,12.90
2022-11-13T05:49:01.265Z,12.80
2022-11-13T05:51:31.479Z,12.80
2022-11-13T05:53:59.139Z,12.80
2022-11-13T05:56:36.852Z,12.80
2022-11-13T05:59:05.036Z,12.80
2022-11-13T06:01:37.643Z,12.80
2022-11-13T06:04:06.349Z,12.80
2022-11-13T06:06:34.235Z,12.80
2022-11-13T06:09:03.758Z,12.80
2022-11-13T06:11:31.604Z,12.80
2022-11-13T06:13:59.408Z,12.80
2022-11-13T06:16:30.034Z,12.80
2022-11-13T06:18:59.292Z,12.80
2022-11-13T06:21:28.749Z,12.80
2022-11-13T06:23:57.225Z,12.80
2022-11-13T06:26:27.251Z,12.80
2022-11-13T06:28:54.083Z,12.80
2022-11-13T06:31:23.533Z,12.80
2022-11-13T06:33:50.603Z,12.80
2022-11-13T06:36:19.975Z,12.80
2022-11-13T06:38:50.697Z,12.90
2022-11-13T06:41:22.682Z,12.80
2022-11-13T06:43:50.004Z,12.80
2022-11-13T06:46:19.283Z,12.80
2022-11-13T06:48:46.932Z,12.80
2022-11-13T06:51:19.549Z,12.90
2022-11-13T06:53:46.613Z,12.90
2022-11-13T06:56:14.240Z,12.90
2022-11-13T06:58:41.424Z,12.90
2022-11-13T07:01:23.004Z,12.90
2022-11-13T07:03:49.957Z,12.90
2022-11-13T07:06:19.969Z,12.90
2022-11-13T07:08:47.437Z,12.90
2022-11-13T07:11:22.480Z,12.90
2022-11-13T07:13:50.048Z,12.90
2022-11-13T07:16:18.137Z,12.90
2022-11-13T07:18:53.063Z,12.90
2022-11-13T07:21:21.523Z,12.90
2022-11-13T07:23:49.761Z,12.90
2022-11-13T07:26:16.933Z,13.00
2022-11-13T07:28:43.850Z,12.90
2022-11-13T07:31:12.582Z,12.90
2022-11-13T07:33:39.378Z,13.00
2022-11-13T07:36:06.857Z,12.90
2022-11-13T07:38:33.780Z,13.00
2022-11-13T07:41:01.061Z,13.00
2022-11-13T07:43:28.113Z,13.00
2022-11-13T07:45:57.670Z,13.00
2022-11-13T07:48:25.251Z,13.00
2022-11-13T07:50:52.130Z,13.00
2022-11-13T07:53:19.599Z,13.00
2022-11-13T07:55:47.316Z,13.00
2022-11-13T07:58:14.170Z,13.10
2022-11-13T08:00:41.024Z,13.10
2022-11-13T08:03:17.536Z,13.10
2022-11-13T08:05:44.600Z,13.10
2022-11-13T08:08:15.388Z,13.10
2022-11-13T08:10:42.669Z,13.10
2022-11-13T08:13:11.122Z,13.10
2022-11-13T08:15:38.669Z,13.10
2022-11-13T08:18:06.088Z,13.10
2022-11-13T08:20:33.880Z,13.10
2022-11-13T08:23:02.682Z,13.10
2022-11-13T08:25:30.638Z,13.10
2022-11-13T08:27:57.998Z,13.20
2022-11-13T08:30:26.421Z,13.20
2022-11-13T08:32:53.776Z,13.20
2022-11-13T08:35:25.180Z,13.20
2022-11-13T08:37:56.104Z,13.20
2022-11-13T08:40:22.910Z,13.20
2022-11-13T08:42:50.114Z,13.20
2022-11-13T08:45:17.130Z,13.20
2022-11-13T08:47:43.997Z,13.30
2022-11-13T08:50:10.870Z,13.20
2022-11-13T08:52:37.721Z,13.30
2022-11-13T08:55:04.945Z,13.30
2022-11-13T08:57:31.818Z,13.30
2022-11-13T08:59:58.653Z,13.30
2022-11-13T09:02:25.503Z,13.30
2022-11-13T09:04:52.336Z,13.30
2022-11-13T09:07:22.123Z,13.30
2022-11-13T09:09:52.887Z,13.30
2022-11-13T09:12:19.740Z,13.30
2022-11-13T09:14:46.535Z,13.30
2022-11-13T09:17:13.594Z,13.30
2022-11-13T09:19:40.593Z,13.30
2022-11-13T09:22:07.785Z,13.30
2022-11-13T09:24:35.015Z,13.40
2022-11-13T09:27:01.912Z,13.40
2022-11-13T09:29:28.924Z,13.40
2022-11-13T09:31:56.348Z,13.40
2022-11-13T09:34:25.435Z,13.40
2022-11-13T09:36:52.362Z,13.40
2022-11-13T09:39:19.204Z,13.40
2022-11-13T09:42:12.631Z,13.50
2022-11-13T09:44:48.946Z,13.40
2022-11-13T09:47:21.603Z,13.50
2022-11-13T09:49:56.807Z,13.50
2022-11-13T09:52:32.753Z,13.40
2022-11-13T09:55:00.041Z,13.50
2022-11-13T09:57:48.616Z,13.50
2022-11-13T10:00:20.842Z,13.50
2022-11-13T10:03:17.703Z,13.50
2022-11-13T10:05:56.791Z,13.50
2022-11-13T10:08:31.398Z,13.50
2022-11-13T10:11:13.362Z,13.50
2022-11-13T10:13:50.807Z,13.50
2022-11-13T10:16:26.692Z,13.50
2022-11-13T10:18:56.244Z,13.50
2022-11-13T10:21:48.343Z,13.50
2022-11-13T10:24:28.964Z,13.50
2022-11-13T10:26:59.401Z,13.50
2022-11-13T10:29:29.210Z,13.50
2022-11-13T10:31:57.115Z,13.50
2022-11-13T10:34:23.960Z,13.50
2022-11-13T10:37:09.049Z,13.60
2022-11-13T10:39:45.824Z,13.60
2022-11-13T10:42:24.031Z,13.60
2022-11-13T10:44:59.059Z,13.60
2022-11-13T10:48:02.598Z,13.60
2022-11-13T10:50:25.347Z,13.60
2022-11-13T10:52:54.723Z,13.60
2022-11-13T10:55:41.526Z,13.60
2022-11-13T10:58:19.712Z,13.60
2022-11-13T11:00:49.837Z,13.60
2022-11-13T11:03:18.198Z,13.60
2022-11-13T11:06:00.006Z,13.60
2022-11-13T11:08:33.126Z,13.60
2022-11-13T11:11:21.576Z,13.60
2022-11-13T11:13:48.967Z,13.60
2022-11-13T11:16:21.589Z,13.60
2022-11-13T11:18:53.781Z,13.60
2022-11-13T11:21:25.402Z,13.60
2022-11-13T11:24:03.067Z,13.60
2022-11-13T11:26:39.720Z,13.60
2022-11-13T11:29:19.182Z,13.60
2022-11-13T11:32:01.040Z,13.60
2022-11-13T11:34:42.971Z,13.60
2022-11-13T11:37:27.671Z,13.60
2022-11-13T11:40:14.248Z,13.60
2022-11-13T11:42:56.063Z,13.70
2022-11-13T11:45:55.450Z,13.70
2022-11-13T11:48:26.755Z,13.70
2022-11-13T11:51:05.630Z,13.70
2022-11-13T11:53:56.114Z,13.70
2022-11-13T11:56:23.912Z,13.70
2022-11-13T11:58:50.838Z,13.70
2022-11-13T12:01:40.551Z,13.70
2022-11-13T12:04:15.906Z,13.70
2022-11-13T12:06:57.744Z,13.70
2022-11-13T12:09:59.505Z,13.80
2022-11-13T12:12:44.462Z,13.80
2022-11-13T12:15:20.848Z,13.80
2022-11-13T12:18:13.817Z,13.80
2022-11-13T12:21:08.195Z,13.80
2022-11-13T12:24:01.728Z,13.80
2022-11-13T12:26:38.586Z,13.80
2022-11-13T12:29:32.314Z,13.80
2022-11-13T12:32:26.362Z,13.90
2022-11-13T12:35:17.718Z,13.80
2022-11-13T12:37:57.643Z,13.80
2022-11-13T12:40:24.568Z,13.90
2022-11-13T12:43:17.344Z,13.80
2022-11-13T12:45:51.323Z,13.90
2022-11-13T12:48:21.036Z,13.90
2022-11-13T12:50:59.507Z,13.90
2022-11-13T12:53:29.214Z,13.90
2022-11-13T12:56:02.040Z,13.80
2022-11-13T12:58:33.427Z,13.80
2022-11-13T13:01:17.669Z,13.90
2022-11-13T13:04:04.557Z,13.90
2022-11-13T13:06:31.333Z,13.90
2022-11-13T13:09:04.268Z,13.80
2022-11-13T13:12:05.586Z,13.90
2022-11-13T13:15:16.423Z,13.90
2022-11-13T13:17:43.302Z,13.90
2022-11-13T13:20:13.235Z,13.90
2022-11-13T13:22:40.741Z,13.90
2022-11-13T13:25:27.206Z,13.90
2022-11-13T13:28:21.490Z,13.90
2022-11-13T13:30:58.653Z,13.90
2022-11-13T13:33:49.933Z,13.90
2022-11-13T13:36:25.649Z,13.90
2022-11-13T13:39:16.718Z,13.90
2022-11-13T13:42:06.741Z,13.90
2022-11-13T13:44:57.471Z,13.90
2022-11-13T13:47:35.480Z,13.90
2022-11-13T13:50:12.442Z,13.90
2022-11-13T13:52:39.530Z,13.90
2022-11-13T13:55:07.832Z,13.90
2022-11-13T13:57:41.235Z,13.90
2022-11-13T14:00:15.623Z,13.90
2022-11-13T14:02:48.129Z,13.90
2022-11-13T14:05:24.246Z,13.90
2022-11-13T14:07:51.158Z,13.90
2022-11-13T14:10:20.947Z,13.90
2022-11-13T14:12:48.350Z,13.90
2022-11-13T14:15:35.346Z,13.90
2022-11-13T14:20:55.414Z,13.90
2022-11-13T14:23:52.233Z,13.90
2022-11-13T14:26:19.898Z,13.90
2022-11-13T14:29:01.859Z,13.90
2022-11-13T14:31:35.422Z,13.90
2022-11-13T14:34:09.760Z,13.90
2022-11-13T14:36:37.832Z,13.90
2022-11-13T14:39:05.049Z,13.90
2022-11-13T14:41:38.614Z,13.80
2022-11-13T14:44:06.342Z,13.80
2022-11-13T14:46:38.835Z,13.80
2022-11-13T14:49:32.519Z,13.80
2022-11-13T14:52:01.324Z,13.80
2022-11-13T14:54:33.808Z,13.80
2022-11-13T14:57:13.645Z,13.80
2022-11-13T14:59:42.568Z,13.80
2022-11-13T15:02:12.061Z,13.80
2022-11-13T15:04:40.679Z,13.80
2022-11-13T15:07:25.520Z,13.80
2022-11-13T15:09:52.670Z,13.80
2022-11-13T15:12:19.471Z,13.80
2022-11-13T15:14:47.138Z,13.80
2022-11-13T15:17:18.239Z,13.70
2022-11-13T15:19:48.553Z,13.80
2022-11-13T15:22:31.054Z,13.70
2022-11-13T15:24:57.977Z,13.70
2022-11-13T15:27:24.901Z,13.70
2022-11-13T15:29:51.740Z,13.70
2022-11-13T15:32:18.669Z,13.70
2022-11-13T15:34:45.525Z,13.70
2022-11-13T15:37:15.686Z,13.70
2022-11-13T15:39:42.727Z,13.70
2022-11-13T15:42:15.489Z,13.70
2022-11-13T15:44:42.769Z,13.70
2022-11-13T15:47:36.576Z,13.70
2022-11-13T15:50:14.400Z,13.70
2022-11-13T15:52:45.684Z,13.70
2022-11-13T15:55:31.551Z,13.70
2022-11-13T15:57:59.305Z,13.70
2022-11-13T16:00:27.823Z,13.70
2022-11-13T16:02:56.399Z,13.70
2022-11-13T16:05:29.303Z,13.70
2022-11-13T16:07:56.837Z,13.70
2022-11-13T16:10:27.259Z,13.70
2022-11-13T16:12:54.224Z,13.70
2022-11-13T16:15:21.759Z,13.70
2022-11-13T16:17:56.229Z,13.70
2022-11-13T16:20:23.863Z,13.60
2022-11-13T16:22:51.221Z,13.60
2022-11-13T16:25:20.333Z,13.70
2022-11-13T16:27:47.735Z,13.70
2022-11-13T16:30:17.042Z,13.70
2022-11-13T16:32:43.913Z,13.70
2022-11-13T16:35:19.736Z,13.60
2022-11-13T16:37:46.617Z,13.70
2022-11-13T16:40:25.953Z,13.70
2022-11-13T16:42:53.783Z,13.70
2022-11-13T16:45:21.889Z,13.70
2022-11-13T16:47:50.601Z,13.70
2022-11-13T16:50:28.075Z,13.70
2022-11-13T16:52:54.924Z,13.70
2022-11-13T16:55:21.785Z,13.70
2022-11-13T16:57:48.891Z,13.70
2022-11-13T17:00:17.856Z,13.70
2022-11-13T17:02:45.217Z,13.70
2022-11-13T17:05:16.877Z,13.70
2022-11-13T17:07:43.823Z,13.70
2022-11-13T17:13:00.996Z,13.70
2022-11-13T17:15:27.949Z,13.60
2022-11-13T17:17:57.273Z,13.60
2022-11-13T17:20:24.524Z,13.60
2022-11-13T17:22:51.436Z,13.60
2022-11-13T17:25:18.930Z,13.60
2022-11-13T17:27:45.847Z,13.60
2022-11-13T17:30:13.631Z,13.60
2022-11-13T17:32:40.544Z,13.60
2022-11-13T17:35:07.985Z,13.60
2022-11-13T17:37:34.861Z,13.60
2022-11-13T17:40:01.764Z,13.50
2022-11-13T17:42:28.748Z,13.50
2022-11-13T17:44:55.820Z,13.60
2022-11-13T17:47:22.653Z,13.50
2022-11-13T17:49:49.517Z,13.60
2022-11-13T17:52:16.485Z,13.50
2022-11-13T17:54:43.466Z,13.50
2022-11-13T17:57:11.425Z,13.50
2022-11-13T17:59:38.433Z,13.50
2022-11-13T18:02:05.375Z,13.50
2022-11-13T18:04:32.429Z,13.50
2022-11-13T18:06:59.303Z,13.50
2022-11-13T18:09:26.239Z,13.50
2022-11-13T18:11:53.094Z,13.40
2022-11-13T18:14:20.309Z,13.50
2022-11-13T18:16:47.149Z,13.40
2022-11-13T18:19:14.227Z,13.40
2022-11-13T18:21:41.970Z,13.40
2022-11-13T18:24:14.719Z,13.40
2022-11-13T18:26:42.005Z,13.40
2022-11-13T18:29:09.103Z,13.40
2022-11-13T18:31:36.690Z,13.30
2022-11-13T18:34:05.139Z,13.30
2022-11-13T18:36:34.574Z,13.20
2022-11-13T18:39:05.804Z,13.20
2022-11-13T18:41:34.936Z,13.20
2022-11-13T18:44:02.020Z,13.20
2022-11-13T18:46:29.117Z,13.20
2022-11-13T18:48:57.340Z,13.10
2022-11-13T18:51:27.697Z,13.10
2022-11-13T18:53:55.621Z,13.20
2022-11-13T18:56:25.423Z,13.10
2022-11-13T18:58:53.942Z,13.10
2022-11-13T19:01:33.608Z,13.20
2022-11-13T19:06:49.698Z,13.20
2022-11-13T19:09:17.413Z,13.20
2022-11-13T19:11:44.970Z,13.20
2022-11-13T19:14:17.185Z,13.20
2022-11-13T19:16:44.236Z,13.20
2022-11-13T19:19:19.451Z,13.20
2022-11-13T19:21:47.203Z,13.20
2022-11-13T19:24:15.067Z,13.10
2022-11-13T19:26:43.327Z,13.10
2022-11-13T19:29:10.815Z,13.10
2022-11-13T19:31:37.610Z,13.10
2022-11-13T19:34:07.176Z,13.10
2022-11-13T19:36:34.644Z,13.10
2022-11-13T19:39:01.862Z,13.10
2022-11-13T19:41:29.548Z,13.10
2022-11-13T19:43:59.759Z,13.10
2022-11-13T19:46:26.879Z,13.10
2022-11-13T19:48:54.508Z,13.10
2022-11-13T19:51:26.540Z,13.10
2022-11-13T19:53:58.674Z,13.10
2022-11-13T19:56:28.323Z,13.10
2022-11-13T19:58:56.096Z,13.10
2022-11-13T20:01:27.965Z,13.10
2022-11-13T20:04:00.486Z,13.10
2022-11-13T20:06:29.290Z,13.10
2022-11-13T20:08:57.894Z,13.10
2022-11-13T20:11:24.757Z,13.10
2022-11-13T20:13:51.944Z,13.10
2022-11-13T20:16:21.120Z,13.10
2022-11-13T20:18:48.633Z,13.10
2022-11-13T20:21:16.170Z,13.10
2022-11-13T20:23:43.041Z,13.10
2022-11-13T20:26:13.716Z,13.10
2022-11-13T20:28:40.731Z,13.10
2022-11-13T20:31:27.841Z,13.10
2022-11-13T20:33:56.987Z,13.10
2022-11-13T20:36:24.837Z,13.10
2022-11-13T20:38:54.431Z,13.10
2022-11-13T20:41:22.003Z,13.10
2022-11-13T20:43:48.990Z,13.10
2022-11-13T20:46:17.695Z,13.10
2022-11-13T20:48:46.204Z,13.10
2022-11-13T20:51:19.506Z,13.00
2022-11-13T20:53:47.039Z,13.00
2022-11-13T20:56:14.528Z,13.00
2022-11-13T20:58:42.078Z,13.00
2022-11-13T21:01:12.002Z,13.00
2022-11-13T21:03:41.616Z,13.00
2022-11-13T21:06:10.948Z,13.10
2022-11-13T21:08:38.224Z,13.00
2022-11-13T21:11:06.805Z,13.10
2022-11-13T21:13:34.764Z,13.00
2022-11-13T21:16:05.783Z,13.00
2022-11-13T21:18:38.759Z,13.00
2022-11-13T21:21:10.954Z,13.00
2022-11-13T21:23:38.482Z,13.00
2022-11-13T21:26:06.963Z,13.00
2022-11-13T21:28:34.512Z,13.00
2022-11-13T21:31:06.732Z,13.00
2022-11-13T21:33:39.003Z,13.00
2022-11-13T21:36:26.837Z,13.00
2022-11-13T21:38:54.859Z,13.00
2022-11-13T21:41:23.382Z,13.00
2022-11-13T21:43:59.683Z,13.00
2022-11-13T21:46:32.435Z,13.00
2022-11-13T21:49:05.072Z,13.00
2022-11-13T21:51:33.790Z,13.00
2022-11-13T21:54:00.965Z,12.90
2022-11-13T21:56:29.276Z,13.00
2022-11-13T21:58:56.804Z,13.00
2022-11-13T22:01:24.882Z,13.00
2022-11-13T22:03:52.100Z,13.00
2022-11-13T22:06:22.141Z,13.00
2022-11-13T22:09:00.292Z,13.00
2022-11-13T22:11:29.945Z,13.00
2022-11-13T22:13:57.505Z,12.90
2022-11-13T22:16:25.712Z,12.90
2022-11-13T22:18:54.851Z,12.90
2022-11-13T22:21:22.904Z,12.90
2022-11-13T22:23:50.350Z,12.90
2022-11-13T22:26:18.565Z,12.80
2022-11-13T22:28:46.401Z,12.80
2022-11-13T22:31:19.513Z,12.80
2022-11-13T22:33:49.729Z,12.80
2022-11-13T22:36:21.015Z,12.80
2022-11-13T22:38:48.066Z,12.80
2022-11-13T22:41:22.931Z,12.80
2022-11-13T22:43:55.641Z,12.80
2022-11-13T22:46:25.265Z,12.80
2022-11-13T22:48:54.202Z,12.70
2022-11-13T22:51:30.214Z,12.80
2022-11-13T22:53:59.621Z,12.80
2022-11-13T22:56:29.133Z,12.80
2022-11-13T22:58:57.890Z,12.80
2022-11-13T23:01:27.013Z,12.80
2022-11-13T23:03:55.152Z,12.80
2022-11-13T23:06:28.974Z,12.70
2022-11-13T23:08:56.163Z,12.70
2022-11-13T23:11:24.586Z,12.70
2022-11-13T23:13:58.780Z,12.70
2022-11-13T23:16:27.164Z,12.70
2022-11-13T23:18:56.253Z,12.70
2022-11-13T23:21:25.308Z,12.70
2022-11-13T23:23:52.728Z,12.70
2022-11-13T23:26:19.718Z,12.70
2022-11-13T23:28:46.669Z,12.70
2022-11-13T23:31:14.023Z,12.70
2022-11-13T23:33:40.871Z,12.70
2022-11-13T23:36:09.803Z,12.70
2022-11-13T23:38:37.035Z,12.70
2022-11-13T23:41:04.026Z,12.80
2022-11-13T23:43:54.223Z,12.70
2022-11-13T23:46:18.284Z,12.70
2022-11-13T23:48:45.181Z,12.70
2022-11-13T23:51:12.184Z,12.70
2022-11-13T23:53:39.029Z,12.70
2022-11-13T23:56:06.610Z,12.70
2022-11-13T23:58:33.822Z,12.70
